createdAt,value
2018-09-22T00:01:10.976Z,19.00
2018-09-22T00:03:52.355Z,20.40
2018-09-22T00:06:33.008Z,22.20
2018-09-22T00:09:14.480Z,18.00
2018-09-22T00:11:55.992Z,25.90
2018-09-22T00:14:37.324Z,17.43
2018-09-22T00:17:18.769Z,23.13
2018-09-22T00:19:59.356Z,23.00
2018-09-22T00:22:40.791Z,24.70
2018-09-22T00:25:21.392Z,19.00
2018-09-22T00:28:02.021Z,16.60
2018-09-22T00:30:43.556Z,18.83
2018-09-22T00:33:24.008Z,17.00
2018-09-22T00:36:04.500Z,18.50
2018-09-22T00:38:45.008Z,21.47
2018-09-22T00:41:25.703Z,24.93
2018-09-22T00:44:07.089Z,14.83
2018-09-22T00:46:48.576Z,21.30
2018-09-22T00:49:29.087Z,15.10
2018-09-22T00:52:09.798Z,15.90
2018-09-22T00:54:51.183Z,18.73
2018-09-22T00:57:31.839Z,17.73
2018-09-22T01:00:13.307Z,20.90
2018-09-22T01:02:53.820Z,26.67
2018-09-22T01:05:35.140Z,25.87
2018-09-22T01:08:16.193Z,19.10
2018-09-22T01:10:56.667Z,23.60
2018-09-22T01:13:37.227Z,23.33
2018-09-22T01:16:17.751Z,19.80
2018-09-22T01:18:59.177Z,22.73
2018-09-22T01:21:39.708Z,16.27
2018-09-22T01:24:20.312Z,18.97
2018-09-22T01:27:00.900Z,23.27
2018-09-22T01:29:41.512Z,18.80
2018-09-22T01:32:22.077Z,17.47
2018-09-22T01:35:02.623Z,31.67
2018-09-22T01:37:43.245Z,19.93
2018-09-22T01:40:24.767Z,22.03
2018-09-22T01:43:06.275Z,22.10
2018-09-22T01:45:47.808Z,27.10
2018-09-22T01:48:29.183Z,17.23
2018-09-22T01:51:09.671Z,18.57
2018-09-22T01:53:50.432Z,32.67
2018-09-22T01:56:31.855Z,19.00
2018-09-22T01:59:12.441Z,24.33
2018-09-22T02:01:53.787Z,21.17
2018-09-22T02:04:35.275Z,26.00
2018-09-22T02:07:16.592Z,19.10
2018-09-22T02:09:57.272Z,35.70
2018-09-22T02:12:38.759Z,21.10
2018-09-22T02:15:19.280Z,24.83
2018-09-22T02:18:00.758Z,20.17
2018-09-22T02:20:41.784Z,17.13
2018-09-22T02:23:22.802Z,19.43
2018-09-22T02:26:03.272Z,21.37
2018-09-22T02:28:43.881Z,16.97
2018-09-22T02:31:25.304Z,19.53
2018-09-22T02:34:05.958Z,15.73
2018-09-22T02:36:47.305Z,15.83
2018-09-22T02:39:28.028Z,17.40
2018-09-22T02:42:09.593Z,16.63
2018-09-22T02:44:51.035Z,15.47
2018-09-22T02:47:31.668Z,19.33
2018-09-22T02:50:12.708Z,15.50
2018-09-22T02:52:54.224Z,32.50
2018-09-22T02:55:35.684Z,18.60
2018-09-22T02:58:16.281Z,16.53
2018-09-22T03:00:57.671Z,18.50
2018-09-22T03:03:39.102Z,21.73
2018-09-22T03:06:19.663Z,18.77
2018-09-22T03:09:00.244Z,15.93
2018-09-22T03:11:41.729Z,14.07
2018-09-22T03:14:22.476Z,14.60
2018-09-22T03:17:03.936Z,14.57
2018-09-22T03:19:45.388Z,14.63
2018-09-22T03:22:26.039Z,18.27
2018-09-22T03:25:06.592Z,17.20
2018-09-22T03:27:47.044Z,17.97
2018-09-22T03:30:27.620Z,19.30
2018-09-22T03:33:08.283Z,15.57
2018-09-22T03:35:48.864Z,17.17
2018-09-22T03:38:29.403Z,16.20
2018-09-22T03:41:10.112Z,14.60
2018-09-22T03:43:51.504Z,15.80
2018-09-22T03:46:32.756Z,14.53
2018-09-22T03:49:14.167Z,14.27
2018-09-22T03:51:54.704Z,16.00
2018-09-22T03:54:35.367Z,20.87
2018-09-22T03:57:15.908Z,14.87
2018-09-22T03:59:56.607Z,16.23
2018-09-22T04:02:38.009Z,14.93
2018-09-22T04:05:18.540Z,15.70
2018-09-22T04:07:59.068Z,25.70
2018-09-22T04:10:39.707Z,32.57
2018-09-22T04:13:21.136Z,17.70
2018-09-22T04:16:02.387Z,16.93
2018-09-22T04:18:43.295Z,16.17
2018-09-22T04:21:23.884Z,20.73
2018-09-22T04:24:21.454Z,18.40
2018-09-22T04:27:02.892Z,14.73
2018-09-22T04:29:43.488Z,16.83
2018-09-22T04:32:25.040Z,18.33
2018-09-22T04:35:06.491Z,16.70
2018-09-22T04:37:47.047Z,17.40
2018-09-22T04:40:28.532Z,19.27
2018-09-22T04:43:09.071Z,18.87
2018-09-22T04:45:50.211Z,18.90
2018-09-22T04:48:31.107Z,18.70
2018-09-22T04:51:12.528Z,31.27
2018-09-22T04:53:53.240Z,21.90
2018-09-22T04:56:34.668Z,24.10
2018-09-22T04:59:15.269Z,21.50
2018-09-22T05:01:55.768Z,15.93
2018-09-22T05:04:36.420Z,14.40
2018-09-22T05:07:16.984Z,16.30
2018-09-22T05:09:57.564Z,15.97
2018-09-22T05:12:38.060Z,16.03
2018-09-22T05:15:18.671Z,14.20
2018-09-22T05:17:59.124Z,15.20
2018-09-22T05:20:39.676Z,15.37
2018-09-22T05:23:20.332Z,17.47
2018-09-22T05:26:01.007Z,17.10
2018-09-22T05:28:42.418Z,21.70
2018-09-22T05:31:23.020Z,21.00
2018-09-22T05:34:03.489Z,14.33
2018-09-22T05:36:44.157Z,20.90
2018-09-22T05:39:25.593Z,14.70
2018-09-22T05:42:06.239Z,14.50
2018-09-22T05:44:47.669Z,14.33
2018-09-22T05:47:28.420Z,13.87
2018-09-22T05:50:08.999Z,14.40
2018-09-22T05:52:49.594Z,13.80
2018-09-22T05:55:31.210Z,26.00
2018-09-22T05:58:12.601Z,17.03
2018-09-22T06:00:54.068Z,14.07
2018-09-22T06:03:34.760Z,19.37
2018-09-22T06:06:15.315Z,14.93
2018-09-22T06:08:55.823Z,15.90
2018-09-22T06:11:36.644Z,13.77
2018-09-22T06:14:18.077Z,22.37
2018-09-22T06:16:59.403Z,23.37
2018-09-22T06:19:40.832Z,20.07
2018-09-22T06:22:22.300Z,22.83
2018-09-22T06:25:03.047Z,22.77
2018-09-22T06:27:43.713Z,19.33
2018-09-22T06:30:25.059Z,15.00
2018-09-22T06:33:05.676Z,23.77
2018-09-22T06:35:47.129Z,29.90
2018-09-22T06:38:27.652Z,22.50
2018-09-22T06:41:08.343Z,23.70
2018-09-22T06:43:49.775Z,23.63
2018-09-22T06:46:30.447Z,18.80
2018-09-22T06:49:11.827Z,17.37
2018-09-22T06:51:52.312Z,27.30
2018-09-22T06:54:32.836Z,28.33
2018-09-22T06:57:13.499Z,23.00
2018-09-22T06:59:55.457Z,42.93
2018-09-22T07:02:36.648Z,27.43
2018-09-22T07:05:18.003Z,29.40
2018-09-22T07:07:59.552Z,48.30
2018-09-22T07:10:40.928Z,33.90
2018-09-22T07:13:21.707Z,25.17
2018-09-22T07:16:03.108Z,23.10
2018-09-22T07:18:43.795Z,20.27
2018-09-22T07:21:29.422Z,36.77
2018-09-22T07:24:10.883Z,32.60
2018-09-22T07:26:52.331Z,25.73
2018-09-22T07:29:33.662Z,19.17
2018-09-22T07:32:14.378Z,25.27
2018-09-22T07:34:54.904Z,12.80
2018-09-22T07:37:36.420Z,30.87
2018-09-22T07:40:18.366Z,29.00
2018-09-22T07:42:59.420Z,18.97
2018-09-22T07:45:40.092Z,31.43
2018-09-22T07:48:21.580Z,27.73
2018-09-22T07:51:02.079Z,23.43
2018-09-22T07:53:42.844Z,47.17
2018-09-22T07:56:24.147Z,38.43
2018-09-22T07:59:04.812Z,14.60
2018-09-22T08:01:46.271Z,41.53
2018-09-22T08:04:26.854Z,33.47
2018-09-22T08:07:08.264Z,30.40
2018-09-22T08:09:48.780Z,16.17
2018-09-22T08:12:29.311Z,37.53
2018-09-22T08:15:09.996Z,21.87
2018-09-22T08:17:51.483Z,23.37
2018-09-22T08:20:31.979Z,27.57
2018-09-22T08:23:13.492Z,20.93
2018-09-22T08:25:54.212Z,24.23
2018-09-22T08:28:35.708Z,36.60
2018-09-22T08:31:17.292Z,23.33
2018-09-22T08:33:58.841Z,22.67
2018-09-22T08:36:40.309Z,32.13
2018-09-22T08:39:21.599Z,28.40
2018-09-22T08:42:02.283Z,23.33
2018-09-22T08:44:42.888Z,17.17
2018-09-22T08:47:24.297Z,20.03
2018-09-22T08:50:04.916Z,28.20
2018-09-22T08:52:45.409Z,18.73
2018-09-22T08:55:26.376Z,21.20
2018-09-22T08:58:07.462Z,14.10
2018-09-22T09:00:48.071Z,14.70
2018-09-22T09:03:28.661Z,19.10
2018-09-22T09:06:10.292Z,12.17
2018-09-22T09:08:51.652Z,16.30
2018-09-22T09:11:32.267Z,13.03
2018-09-22T09:14:13.815Z,15.60
2018-09-22T09:16:55.239Z,16.57
2018-09-22T09:19:35.855Z,27.00
2018-09-22T09:22:17.820Z,25.57
2018-09-22T09:24:58.840Z,14.63
2018-09-22T09:27:39.639Z,16.70
2018-09-22T09:30:20.960Z,18.73
2018-09-22T09:33:01.560Z,22.57
2018-09-22T09:35:42.211Z,15.77
2018-09-22T09:38:23.587Z,8.07
2018-09-22T09:41:04.140Z,15.87
2018-09-22T09:43:45.170Z,14.00
2018-09-22T09:46:26.129Z,14.63
2018-09-22T09:49:07.576Z,19.83
2018-09-22T09:51:48.191Z,20.93
2018-09-22T09:54:29.612Z,18.60
2018-09-22T09:57:11.016Z,8.80
2018-09-22T09:59:51.622Z,17.83
2018-09-22T10:02:33.020Z,15.23
2018-09-22T10:05:14.399Z,15.43
2018-09-22T10:07:54.962Z,13.63
2018-09-22T10:10:35.603Z,6.37
2018-09-22T10:13:17.056Z,13.03
2018-09-22T10:15:58.399Z,12.13
2018-09-22T10:18:39.016Z,11.67
2018-09-22T10:21:20.387Z,5.83
2018-09-22T10:24:01.033Z,9.93
2018-09-22T10:26:41.688Z,9.33
2018-09-22T10:29:23.812Z,14.30
2018-09-22T10:32:05.331Z,16.80
2018-09-22T10:34:46.280Z,13.67
2018-09-22T10:37:26.875Z,14.50
2018-09-22T10:40:07.396Z,13.13
2018-09-22T10:42:48.940Z,10.70
2018-09-22T10:45:30.403Z,10.53
2018-09-22T10:48:10.868Z,7.40
2018-09-22T10:50:51.539Z,10.23
2018-09-22T10:53:32.255Z,5.73
2018-09-22T10:56:12.860Z,15.43
2018-09-22T10:58:53.519Z,7.63
2018-09-22T11:01:35.007Z,7.63
2018-09-22T11:04:15.460Z,11.93
2018-09-22T11:06:56.061Z,5.67
2018-09-22T11:09:36.575Z,11.07
2018-09-22T11:12:18.032Z,23.63
2018-09-22T11:14:59.423Z,9.57
2018-09-22T11:17:39.925Z,11.80
2018-09-22T11:20:20.467Z,10.63
2018-09-22T11:23:02.168Z,11.40
2018-09-22T11:25:43.512Z,11.10
2018-09-22T11:28:24.888Z,9.70
2018-09-22T11:31:05.464Z,15.70
2018-09-22T11:33:45.963Z,9.53
2018-09-22T11:36:26.699Z,12.53
2018-09-22T11:39:08.080Z,8.87
2018-09-22T11:41:48.640Z,19.13
2018-09-22T11:44:29.167Z,7.50
2018-09-22T11:47:09.631Z,8.70
2018-09-22T11:49:51.137Z,6.93
2018-09-22T11:52:32.612Z,7.63
2018-09-22T11:55:13.144Z,14.43
2018-09-22T11:57:54.605Z,17.03
2018-09-22T12:00:36.067Z,9.00
2018-09-22T12:03:17.453Z,9.00
2018-09-22T12:05:58.115Z,5.40
2018-09-22T12:08:39.532Z,10.40
2018-09-22T12:11:20.066Z,5.27
2018-09-22T12:14:00.642Z,6.77
2018-09-22T12:16:41.288Z,10.73
2018-09-22T12:19:21.828Z,8.23
2018-09-22T12:22:02.339Z,9.90
2018-09-22T12:24:42.882Z,11.10
2018-09-22T12:27:23.415Z,15.30
2018-09-22T12:30:04.008Z,10.80
2018-09-22T12:32:44.553Z,13.43
2018-09-22T12:35:25.144Z,11.23
2018-09-22T12:38:05.721Z,13.27
2018-09-22T12:40:46.173Z,12.03
2018-09-22T12:43:26.764Z,12.27
2018-09-22T12:46:08.215Z,10.23
2018-09-22T12:48:49.751Z,8.33
2018-09-22T12:51:30.272Z,11.03
2018-09-22T12:54:10.703Z,6.17
2018-09-22T12:56:52.171Z,6.67
2018-09-22T12:59:32.646Z,5.03
2018-09-22T13:02:13.179Z,6.70
2018-09-22T13:04:54.539Z,3.60
2018-09-22T13:07:35.007Z,4.93
2018-09-22T13:10:15.603Z,3.87
2018-09-22T13:12:56.975Z,3.17
2018-09-22T13:15:37.483Z,2.50
2018-09-22T13:18:18.095Z,3.53
2018-09-22T13:20:59.532Z,9.10
2018-09-22T13:23:40.832Z,1.80
2018-09-22T13:26:21.383Z,2.23
2018-09-22T13:29:01.923Z,2.13
2018-09-22T13:31:42.415Z,3.07
2018-09-22T13:34:24.021Z,3.60
2018-09-22T13:37:04.670Z,4.30
2018-09-22T13:39:45.301Z,6.90
2018-09-22T13:42:26.790Z,4.37
2018-09-22T13:45:09.016Z,3.67
2018-09-22T13:47:49.491Z,2.17
2018-09-22T13:50:30.019Z,2.10
2018-09-22T13:53:10.531Z,3.53
2018-09-22T13:55:51.183Z,2.97
2018-09-22T13:58:31.651Z,2.63
2018-09-22T14:01:13.152Z,3.70
2018-09-22T14:03:53.775Z,2.03
2018-09-22T14:06:35.671Z,1.97
2018-09-22T14:09:17.083Z,8.83
2018-09-22T14:11:58.160Z,4.20
2018-09-22T14:14:38.628Z,2.87
2018-09-22T14:17:19.192Z,6.00
2018-09-22T14:19:59.753Z,3.33
2018-09-22T14:22:40.405Z,3.43
2018-09-22T14:25:21.808Z,6.20
2018-09-22T14:28:02.240Z,3.57
2018-09-22T14:30:42.876Z,2.63
2018-09-22T14:33:23.906Z,4.50
2018-09-22T14:36:04.919Z,5.87
2018-09-22T14:38:45.450Z,5.40
2018-09-22T14:41:25.939Z,8.77
2018-09-22T14:44:06.491Z,5.27
2018-09-22T14:46:46.952Z,3.97
2018-09-22T14:49:27.596Z,4.97
2018-09-22T14:52:08.972Z,3.50
2018-09-22T14:54:49.975Z,12.07
2018-09-22T14:57:30.952Z,9.67
2018-09-22T15:00:11.478Z,4.07
2018-09-22T15:02:51.970Z,8.63
2018-09-22T15:05:32.523Z,9.30
2018-09-22T15:08:13.032Z,11.83
2018-09-22T15:10:54.383Z,4.23
2018-09-22T15:13:35.037Z,10.60
2018-09-22T15:16:15.676Z,7.83
2018-09-22T15:18:56.155Z,4.60
2018-09-22T15:21:36.691Z,10.87
2018-09-22T15:24:17.356Z,8.33
2018-09-22T15:26:58.632Z,10.77
2018-09-22T15:29:40.096Z,7.63
2018-09-22T15:32:21.447Z,11.10
2018-09-22T15:35:01.919Z,17.23
2018-09-22T15:37:42.455Z,7.93
2018-09-22T15:40:23.072Z,7.43
2018-09-22T15:43:03.640Z,12.17
2018-09-22T15:45:45.600Z,6.10
2018-09-22T15:48:26.690Z,7.97
2018-09-22T15:51:07.139Z,6.47
2018-09-22T15:53:48.215Z,7.40
2018-09-22T15:56:29.244Z,7.43
2018-09-22T15:59:09.752Z,10.03
2018-09-22T16:01:50.330Z,8.50
2018-09-22T16:04:31.791Z,8.43
2018-09-22T16:07:12.348Z,9.10
2018-09-22T16:09:52.859Z,9.80
2018-09-22T16:12:33.351Z,13.43
2018-09-22T16:15:13.972Z,13.03
2018-09-22T16:17:55.327Z,9.70
2018-09-22T16:20:35.816Z,10.40
2018-09-22T16:23:16.320Z,13.63
2018-09-22T16:25:56.956Z,10.43
2018-09-22T16:28:37.485Z,15.57
2018-09-22T16:31:18.139Z,10.67
2018-09-22T16:33:59.535Z,10.70
2018-09-22T16:36:40.871Z,12.80
2018-09-22T16:39:22.370Z,21.23
2018-09-22T16:42:03.715Z,15.83
2018-09-22T16:44:44.365Z,11.77
2018-09-22T16:47:24.924Z,12.33
2018-09-22T16:50:06.395Z,10.60
2018-09-22T16:52:46.865Z,8.90
2018-09-22T16:55:28.275Z,12.67
2018-09-22T16:58:09.783Z,17.60
2018-09-22T17:00:50.338Z,20.40
2018-09-22T17:03:31.869Z,9.50
2018-09-22T17:06:12.388Z,23.53
2018-09-22T17:08:52.891Z,14.97
2018-09-22T17:11:33.590Z,15.53
2018-09-22T17:14:14.916Z,18.57
2018-09-22T17:16:55.457Z,18.43
2018-09-22T17:19:36.932Z,23.23
2018-09-22T17:22:17.499Z,19.20
2018-09-22T17:24:58.020Z,13.57
2018-09-22T17:27:38.608Z,10.53
2018-09-22T17:30:20.159Z,19.20
2018-09-22T17:33:01.996Z,10.07
2018-09-22T17:35:42.984Z,10.60
2018-09-22T17:38:23.691Z,13.00
2018-09-22T17:41:05.151Z,22.00
2018-09-22T17:43:46.431Z,26.23
2018-09-22T17:46:27.659Z,21.50
2018-09-22T17:49:08.359Z,22.27
2018-09-22T17:51:48.936Z,31.80
2018-09-22T17:54:29.505Z,39.77
2018-09-22T17:57:10.135Z,25.03
2018-09-22T17:59:50.716Z,31.63
2018-09-22T18:02:32.188Z,19.37
2018-09-22T18:05:12.715Z,19.60
2018-09-22T18:07:54.166Z,22.40
2018-09-22T18:10:34.859Z,18.87
2018-09-22T18:13:15.543Z,15.93
2018-09-22T18:15:56.823Z,29.23
2018-09-22T18:18:38.216Z,29.90
2018-09-22T18:21:18.915Z,27.33
2018-09-22T18:24:00.311Z,26.97
2018-09-22T18:26:40.832Z,21.30
2018-09-22T18:29:21.404Z,25.13
2018-09-22T18:32:03.147Z,28.23
2018-09-22T18:34:44.563Z,33.60
2018-09-22T18:37:25.953Z,33.23
2018-09-22T18:40:06.744Z,20.73
2018-09-22T18:42:48.296Z,19.73
2018-09-22T18:45:29.726Z,19.47
2018-09-22T18:48:10.331Z,23.60
2018-09-22T18:50:50.956Z,19.93
2018-09-22T18:53:31.520Z,25.87
2018-09-22T18:56:12.923Z,20.97
2018-09-22T18:58:54.363Z,17.20
2018-09-22T19:01:34.869Z,29.70
2018-09-22T19:04:15.421Z,27.63
2018-09-22T19:06:56.411Z,26.77
2018-09-22T19:09:37.552Z,21.00
2018-09-22T19:12:18.132Z,30.80
2018-09-22T19:15:02.819Z,19.70
2018-09-22T19:17:55.640Z,22.67
2018-09-22T19:20:44.579Z,19.63
2018-09-22T19:23:29.645Z,22.37
2018-09-22T19:26:14.683Z,36.27
2018-09-22T19:29:06.325Z,27.83
2018-09-22T19:31:53.671Z,32.27
2018-09-22T19:34:44.499Z,22.97
2018-09-22T19:37:31.747Z,31.30
2018-09-22T19:40:21.292Z,18.97
2018-09-22T19:43:06.781Z,23.40
2018-09-22T19:45:50.291Z,17.53
2018-09-22T19:48:36.212Z,32.27
2018-09-22T19:51:18.778Z,22.10
2018-09-22T19:54:00.423Z,25.37
2018-09-22T19:56:41.823Z,21.13
2018-09-22T19:59:22.360Z,12.33
2018-09-22T20:02:02.928Z,19.23
2018-09-22T20:04:44.423Z,18.77
2018-09-22T20:07:24.924Z,17.60
2018-09-22T20:10:05.505Z,41.93
2018-09-22T20:12:46.118Z,26.40
2018-09-22T20:15:26.591Z,21.67
2018-09-22T20:18:07.109Z,24.13
2018-09-22T20:20:47.740Z,24.63
2018-09-22T20:23:28.420Z,27.40
2018-09-22T20:26:09.815Z,20.70
2018-09-22T20:28:50.289Z,16.60
2018-09-22T20:31:31.868Z,21.53
2018-09-22T20:34:12.379Z,23.17
2018-09-22T20:36:52.959Z,17.70
2018-09-22T20:39:33.436Z,27.27
2018-09-22T20:42:14.661Z,23.10
2018-09-22T20:44:55.419Z,20.87
2018-09-22T20:47:36.576Z,26.23
2018-09-22T20:50:17.448Z,18.73
2018-09-22T20:52:58.047Z,25.53
2018-09-22T20:55:39.601Z,22.97
2018-09-22T20:58:20.976Z,10.57
2018-09-22T21:01:02.468Z,13.60
2018-09-22T21:03:43.843Z,17.37
2018-09-22T21:06:24.548Z,13.00
2018-09-22T21:09:06.077Z,28.40
2018-09-22T21:11:47.455Z,12.23
2018-09-22T21:14:28.280Z,19.63
2018-09-22T21:17:09.632Z,18.53
2018-09-22T21:19:50.688Z,31.73
2018-09-22T21:22:31.695Z,24.63
2018-09-22T21:25:13.237Z,21.40
2018-09-22T21:27:53.691Z,21.20
2018-09-22T21:30:34.399Z,25.33
2018-09-22T21:33:15.699Z,20.73
2018-09-22T21:35:56.447Z,18.80
2018-09-22T21:38:38.452Z,17.90
2018-09-22T21:41:19.500Z,19.37
2018-09-22T21:44:00.108Z,11.00
2018-09-22T21:46:40.824Z,14.60
2018-09-22T21:49:21.600Z,12.67
2018-09-22T21:52:02.999Z,17.23
2018-09-22T21:54:44.373Z,18.23
2018-09-22T21:57:24.924Z,11.87
2018-09-22T22:00:05.444Z,10.97
2018-09-22T22:02:47.316Z,23.07
2018-09-22T22:05:28.275Z,11.50
2018-09-22T22:08:08.780Z,13.87
2018-09-22T22:10:50.228Z,12.80
2018-09-22T22:13:31.674Z,15.33
2018-09-22T22:16:12.137Z,16.43
2018-09-22T22:18:52.827Z,22.40
2018-09-22T22:21:34.497Z,14.70
2018-09-22T22:24:15.027Z,15.50
2018-09-22T22:26:55.852Z,41.57
2018-09-22T22:29:37.244Z,23.20
2018-09-22T22:32:18.219Z,16.17
2018-09-22T22:34:59.376Z,24.00
2018-09-22T22:37:39.948Z,19.87
2018-09-22T22:40:20.541Z,24.13
2018-09-22T22:43:01.915Z,18.43
2018-09-22T22:45:42.688Z,16.27
2018-09-22T22:48:24.059Z,21.97
2018-09-22T22:51:04.839Z,14.83
2018-09-22T22:53:46.143Z,9.87
2018-09-22T22:56:26.740Z,11.33
2018-09-22T22:59:08.159Z,11.07
2018-09-22T23:01:49.571Z,18.23
2018-09-22T23:04:30.147Z,11.57
2018-09-22T23:07:10.652Z,13.30
2018-09-22T23:09:52.471Z,12.30
2018-09-22T23:12:33.564Z,11.40
2018-09-22T23:15:14.188Z,9.43
2018-09-22T23:17:54.718Z,12.00
2018-09-22T23:20:36.242Z,16.30
2018-09-22T23:23:17.652Z,13.67
2018-09-22T23:25:58.263Z,12.53
2018-09-22T23:28:38.887Z,15.90
2018-09-22T23:31:19.434Z,28.43
2018-09-22T23:34:00.148Z,11.73
2018-09-22T23:36:41.344Z,12.60
2018-09-22T23:39:22.603Z,11.40
2018-09-22T23:42:03.592Z,19.63
2018-09-22T23:44:44.113Z,24.10
2018-09-22T23:47:24.581Z,15.50
2018-09-22T23:50:05.172Z,13.10
2018-09-22T23:52:45.639Z,20.00
2018-09-22T23:55:26.160Z,17.83
2018-09-22T23:58:07.382Z,13.00
